Погода Бумажковона 2 недели

Гомельская область, Белоруссия

16 - 29 июля
  • 16июля
    Сегодня
    +19°
    +30°
    Ясно и безоблачно
    ВремяПогодаТемператураВлажностьДавлениеВетер, м/сВероятность осадков
    00:00Ясно и безоблачно+20°C95 %750 мм0.0 м/с2 %
    03:00Ясно и безоблачно+18°C99 %750 мм0.0 м/с2 %
    06:00Пасмурно, сплошная облачность+18°C99 %751 мм0.1 м/с2 %
    09:00Практически безоблачно+24°C84 %751 мм1.2 м/с2 %
    12:00Ясно и безоблачно+27°C61 %751 мм1.1 м/с2 %
    15:00Ясно и безоблачно+30°C45 %751 мм1.2 м/с2 %
    18:00Ясно и безоблачно+29°C45 %750 мм0.9 м/с2 %
    21:00Ясно и безоблачно+25°C58 %750 мм0.7 м/с2 %
  • 17июля
    Среда
    +18°
    +31°
    Небольшая облачность
    ВремяПогодаТемператураВлажностьДавлениеВетер, м/сВероятность осадков
    00:00Ясно и безоблачно+21°C65 %749 мм0.4 м/с2 %
    03:00Облачно с прояснениями+20°C74 %749 мм0.3 м/с2 %
    06:00Облачно с прояснениями+20°C75 %750 мм0.7 м/с18 %
    09:00Практически безоблачно+24°C83 %750 мм1.9 м/с24 %
    12:00Небольшая облачность+29°C57 %750 мм1.8 м/с7 %
    15:00Небольшая облачность+30°C57 %750 мм2.3 м/с34 %
    18:00Облачно с прояснениями+27°C68 %750 мм1.9 м/с50 %
    21:00Облачно с прояснениями+25°C83 %750 мм0.9 м/с20 %
  • 18июля
    Четверг
    +15°
    +26°
    Небольшая облачность
    ВремяПогодаТемператураВлажностьДавлениеВетер, м/сВероятность осадков
    00:00Облачно с прояснениями+21°C93 %751 мм0.1 м/с2 %
    03:00Небольшая облачность+19°C92 %751 мм0.1 м/с2 %
    06:00Ясно и безоблачно+19°C91 %751 мм0.4 м/с3 %
    09:00Облачно с прояснениями+23°C75 %751 мм0.6 м/с12 %
    12:00Облачно с прояснениями+24°C51 %751 мм1.0 м/с33 %
    15:00Небольшая облачность+25°C46 %750 мм1.0 м/с27 %
    18:00Облачно с прояснениями, небольшой дождь+25°C49 %750 мм1.1 м/с52 %
    21:00Практически безоблачно+21°C77 %751 мм0.8 м/с40 %
  • 19июля
    Пятница
    +13°
    +25°
    Небольшая облачность
    ВремяПогодаТемператураВлажностьДавлениеВетер, м/сВероятность осадков
    00:00Ясно и безоблачно+18°C91 %751 мм0.4 м/с16 %
    03:00Ясно и безоблачно+17°C95 %751 мм0.8 м/с10 %
    06:00Ясно и безоблачно+16°C95 %751 мм0.7 м/с6 %
    09:00Ясно и безоблачно+21°C66 %751 мм2.0 м/с2 %
    12:00Небольшая облачность+22°C46 %751 мм2.3 м/с8 %
    15:00Небольшая облачность+25°C36 %750 мм2.5 м/с3 %
    18:00Облачно с прояснениями+24°C37 %749 мм2.4 м/с2 %
    21:00Облачно с прояснениями+21°C57 %749 мм1.1 м/с2 %
  • 20июля
    Суббота
    +13°
    +24°
    Облачно с прояснениями
    ВремяПогодаТемператураВлажностьДавлениеВетер, м/сВероятность осадков
    00:00Облачно с прояснениями+17°C70 %749 мм0.1 м/с2 %
    03:00Ясно и безоблачно+15°C79 %749 мм0.3 м/с2 %
    06:00Ясно и безоблачно+14°C80 %749 мм0.5 м/с2 %
    09:00Ясно и безоблачно+20°C63 %749 мм1.8 м/с2 %
    12:00Практически безоблачно+22°C49 %748 мм2.2 м/с33 %
    15:00Облачно с прояснениями+24°C45 %748 мм2.4 м/с29 %
    18:00Практически безоблачно+24°C45 %748 мм2.4 м/с20 %
    21:00Ясно и безоблачно+21°C55 %748 мм1.3 м/с5 %
Мы используем cookies
Соглашаюсь